Time;durP1;ratioP1;P1;durP2;ratioP2;P2;SDS_P1;SDS_P2;PMS_P1;PMS_P2;Temp;Humidity;BMP_temperature;BMP_pressure;BME280_temperature;BME280_humidity;BME280_pressure;Samples;Min_cycle;Max_cycle;Signal;HPM_P1;HPM_P2
2021/01/16 00:01:06;;;;;;;11.45;7.75;;;;;;;4.92;43.32;99207.47;1856075;77;21128;-64
2021/01/16 00:03:34;;;;;;;9.08;6.62;;;;;;;4.92;43.30;99209.25;1848132;77;21584;-63
2021/01/16 00:06:04;;;;;;;9.65;6.83;;;;;;;4.91;43.32;99215.01;1835150;77;21170;-64
2021/01/16 00:11:13;;;;;;;10.87;8.13;;;;;;;4.95;43.30;99215.55;1759725;80;25683;-65
2021/01/16 00:13:41;;;;;;;9.13;7.78;;;;;;;4.89;43.30;99211.70;1785603;79;21182;-65
2021/01/16 00:16:09;;;;;;;9.88;7.33;;;;;;;4.89;43.29;99215.64;1784385;79;22821;-65
2021/01/16 00:18:36;;;;;;;9.65;7.28;;;;;;;4.87;43.28;99221.54;1785418;79;21130;-65
2021/01/16 00:21:05;;;;;;;9.15;7.17;;;;;;;4.88;43.30;99223.18;1790714;79;21127;-65
2021/01/16 00:23:32;;;;;;;10.30;8.00;;;;;;;4.88;43.25;99222.36;1772654;79;21150;-64
2021/01/16 00:25:59;;;;;;;9.20;7.53;;;;;;;4.88;43.28;99230.26;1787262;79;21036;-64
2021/01/16 00:28:30;;;;;;;11.05;7.55;;;;;;;4.86;43.26;99214.60;1794298;79;21362;-64
2021/01/16 00:30:58;;;;;;;9.50;6.90;;;;;;;4.88;43.24;99215.78;1777406;79;21665;-65
2021/01/16 00:33:28;;;;;;;10.18;7.67;;;;;;;4.87;43.21;99216.77;1773183;79;21623;-64
2021/01/16 00:35:56;;;;;;;10.53;7.28;;;;;;;4.86;43.20;99218.55;1788485;79;21181;-64
2021/01/16 00:38:25;;;;;;;10.32;7.33;;;;;;;4.85;43.26;99223.48;1777172;79;21583;-64
2021/01/16 00:40:55;;;;;;;9.48;7.22;;;;;;;4.84;43.21;99217.87;1777023;79;21424;-65
2021/01/16 00:43:22;;;;;;;9.70;7.35;;;;;;;4.84;43.19;99219.19;1779027;79;21587;-64
2021/01/16 00:45:51;;;;;;;11.83;7.85;;;;;;;4.85;43.21;99218.72;1774187;79;21424;-63
2021/01/16 00:48:22;;;;;;;10.13;8.08;;;;;;;4.84;43.20;99220.50;1774435;79;21158;-64
2021/01/16 00:50:52;;;;;;;10.03;7.22;;;;;;;4.84;43.19;99224.94;1771742;79;21603;-65
2021/01/16 00:53:23;;;;;;;8.78;6.78;;;;;;;4.78;43.19;99215.81;1779359;79;22242;-65
2021/01/16 00:55:54;;;;;;;11.73;8.10;;;;;;;4.81;43.17;99224.75;1803039;79;21130;-65
2021/01/16 00:58:22;;;;;;;11.08;6.65;;;;;;;4.81;43.20;99228.70;1778997;79;21134;-65
2021/01/16 01:00:57;;;;;;;8.95;6.22;;;;;;;4.82;43.15;99222.94;1789508;79;21177;-65
2021/01/16 01:03:27;;;;;;;11.18;7.42;;;;;;;4.80;43.13;99223.08;1772434;79;21614;-64
2021/01/16 01:05:56;;;;;;;10.85;7.60;;;;;;;4.79;43.10;99225.39;1775468;79;21748;-65
2021/01/16 01:08:29;;;;;;;8.75;7.12;;;;;;;4.79;43.14;99210.06;1793163;79;21204;-64
2021/01/16 01:10:57;;;;;;;9.65;6.62;;;;;;;4.78;43.13;99228.16;1801260;79;21095;-65
2021/01/16 01:13:24;;;;;;;9.00;6.90;;;;;;;4.78;43.08;99226.84;1796703;79;21127;-66
2021/01/16 01:15:51;;;;;;;8.65;6.08;;;;;;;4.76;43.10;99226.98;1778603;79;21079;-65
2021/01/16 01:18:19;;;;;;;9.40;6.70;;;;;;;4.75;43.10;99225.30;1784077;79;21203;-64
2021/01/16 01:20:47;;;;;;;9.40;6.60;;;;;;;4.75;43.11;99229.25;1771932;79;21158;-64
2021/01/16 01:23:14;;;;;;;8.63;6.15;;;;;;;4.73;43.11;99229.42;1799589;79;21130;-65
2021/01/16 01:25:42;;;;;;;9.98;6.70;;;;;;;4.73;43.10;99226.78;1788416;79;21206;-64
2021/01/16 01:28:09;;;;;;;8.45;5.53;;;;;;;4.73;43.07;99222.84;1791812;79;21153;-64
2021/01/16 01:30:36;;;;;;;9.25;6.87;;;;;;;4.74;43.08;99217.08;1768377;79;21740;-63
2021/01/16 01:33:15;;;;;;;8.13;6.62;;;;;;;4.73;43.12;99212.78;1777133;79;22149;-64
2021/01/16 01:35:44;;;;;;;9.03;6.40;;;;;;;4.73;43.08;99204.88;1745125;81;21657;-63
2021/01/16 01:38:17;;;;;;;6.95;5.65;;;;;;;4.72;43.05;99220.34;1747099;81;21169;-65
2021/01/16 01:40:45;;;;;;;7.85;6.17;;;;;;;4.71;43.07;99217.36;1732994;81;21160;-65
2021/01/16 01:43:13;;;;;;;8.90;6.28;;;;;;;4.70;43.04;99214.39;1729484;81;21393;-63
2021/01/16 01:45:41;;;;;;;8.20;5.78;;;;;;;4.71;43.04;99222.62;1747212;81;21169;-64
2021/01/16 01:48:10;;;;;;;9.78;5.50;;;;;;;4.69;43.01;99222.78;1749362;81;21197;-63
2021/01/16 01:50:38;;;;;;;8.23;6.12;;;;;;;4.69;43.02;99221.94;1751846;81;21153;-63
2021/01/16 01:53:05;;;;;;;10.43;6.47;;;;;;;4.69;43.00;99224.56;1736553;81;21196;-63
2021/01/16 01:55:33;;;;;;;8.08;5.37;;;;;;;4.69;42.99;99235.94;1738350;81;21370;-63
2021/01/16 01:58:02;;;;;;;8.33;5.92;;;;;;;4.69;43.00;99235.09;1707062;82;22180;-64
2021/01/16 02:00:32;;;;;;;8.83;5.40;;;;;;;4.67;42.95;99227.33;1723272;82;21156;-62
2021/01/16 02:03:00;;;;;;;9.55;6.08;;;;;;;4.67;42.93;99225.20;1753762;81;21141;-63
2021/01/16 02:05:27;;;;;;;6.92;5.15;;;;;;;4.66;42.93;99234.08;1732887;81;21191;-63
2021/01/16 02:07:55;;;;;;;7.05;5.37;;;;;;;4.66;42.93;99236.71;1729024;81;21353;-66
2021/01/16 02:10:23;;;;;;;9.00;5.62;;;;;;;4.65;42.93;99233.72;1735015;81;21161;-63
2021/01/16 02:12:54;;;;;;;7.20;5.67;;;;;;;4.60;42.92;99234.66;1725709;83;21185;-64
2021/01/16 02:15:39;;;;;;;6.60;5.03;;;;;;;4.63;42.93;99239.12;1730941;81;21655;-63
2021/01/16 02:18:26;;;;;;;8.70;5.97;;;;;;;4.63;42.92;99242.24;1742574;81;21596;-63
2021/01/16 02:20:56;;;;;;;8.03;5.35;;;;;;;4.60;42.92;99247.31;1731770;82;22151;-64
2021/01/16 02:23:33;;;;;;;7.47;5.33;;;;;;;4.58;42.92;99245.31;1723585;82;21178;-62
2021/01/16 02:26:21;;;;;;;7.08;5.22;;;;;;;4.57;42.91;99244.13;1721449;82;21238;-64
2021/01/16 02:29:07;;;;;;;7.10;5.47;;;;;;;4.57;42.90;99249.39;1712708;82;21172;-63
2021/01/16 02:31:45;;;;;;;8.05;5.30;;;;;;;4.55;42.94;99242.12;1711364;82;21136;-63
2021/01/16 02:34:20;;;;;;;6.87;4.75;;;;;;;4.53;42.94;99244.41;1752757;81;21505;-63
2021/01/16 02:37:32;;;;;;;7.62;4.97;;;;;;;4.52;42.96;99241.94;1736268;81;21162;-64
2021/01/16 02:40:29;;;;;;;6.90;5.28;;;;;;;4.50;42.92;99248.65;1730007;81;21149;-65
2021/01/16 02:43:15;;;;;;;7.00;5.12;;;;;;;4.47;42.95;99250.23;1755067;81;21117;-64
2021/01/16 02:45:47;;;;;;;6.50;4.80;;;;;;;4.45;42.99;99253.98;1730606;81;21240;-65
2021/01/16 02:48:24;;;;;;;7.35;5.15;;;;;;;4.41;43.01;99254.75;1743289;81;22128;-65
2021/01/16 02:50:54;;;;;;;6.83;5.12;;;;;;;4.41;43.00;99252.61;1713223;82;21183;-64
2021/01/16 02:53:23;;;;;;;7.62;5.25;;;;;;;4.41;43.01;99247.35;1744481;81;21144;-63
2021/01/16 02:55:51;;;;;;;7.03;4.97;;;;;;;4.40;43.02;99244.36;1737513;81;21386;-65
2021/01/16 02:58:19;;;;;;;6.30;4.50;;;;;;;4.38;43.00;99243.18;1738437;81;21165;-63
2021/01/16 03:00:46;;;;;;;7.90;5.75;;;;;;;4.39;43.03;99250.12;1743487;81;21375;-63
2021/01/16 03:03:16;;;;;;;6.95;4.80;;;;;;;4.38;42.99;99255.02;1749660;81;21185;-62
2021/01/16 03:05:44;;;;;;;6.65;5.08;;;;;;;4.37;42.98;99257.31;1745530;81;21201;-63
2021/01/16 03:08:11;;;;;;;7.65;4.70;;;;;;;4.39;42.94;99251.92;1750295;81;21176;-62
2021/01/16 03:10:39;;;;;;;9.00;5.42;;;;;;;4.37;42.95;99246.80;1747938;80;21141;-63
2021/01/16 03:13:10;;;;;;;7.45;5.42;;;;;;;4.37;42.89;99250.74;1752616;81;21215;-63
2021/01/16 03:15:37;;;;;;;5.60;4.92;;;;;;;4.37;42.89;99261.75;1748055;81;21189;-64
2021/01/16 03:18:05;;;;;;;7.50;5.20;;;;;;;4.36;42.89;99267.48;1742757;81;21161;-64
2021/01/16 03:20:33;;;;;;;7.85;4.65;;;;;;;4.35;42.82;99267.15;1711296;83;21201;-63
2021/01/16 03:23:01;;;;;;;7.05;4.75;;;;;;;4.34;42.81;99266.79;1718866;82;21311;-64
2021/01/16 03:25:31;;;;;;;7.05;5.42;;;;;;;4.32;42.80;99259.03;1708202;83;22191;-64
2021/01/16 03:27:59;;;;;;;8.10;5.53;;;;;;;4.33;42.76;99263.83;1733176;82;21167;-63
2021/01/16 03:30:27;;;;;;;8.50;6.33;;;;;;;4.30;42.80;99274.12;1720308;82;21211;-64
2021/01/16 03:32:56;;;;;;;7.35;5.33;;;;;;;4.30;42.79;99266.73;1738935;82;21200;-64
2021/01/16 03:35:25;;;;;;;6.72;4.60;;;;;;;4.28;42.75;99265.55;1725810;82;21143;-64
2021/01/16 03:39:52;;;;;;;7.30;5.20;;;;;;;4.32;42.69;99262.16;1847058;76;24735;-64
2021/01/16 03:42:19;;;;;;;6.90;4.95;;;;;;;4.22;42.75;99258.71;1790721;78;21146;-63
2021/01/16 03:44:47;;;;;;;7.10;5.15;;;;;;;4.22;42.74;99262.66;1802541;78;21436;-63
2021/01/16 03:47:14;;;;;;;6.53;4.47;;;;;;;4.21;42.70;99251.78;1793261;78;21059;-64
2021/01/16 03:49:42;;;;;;;7.42;4.90;;;;;;;4.19;42.69;99262.92;1777631;77;21131;-63
2021/01/16 03:52:09;;;;;;;7.58;5.03;;;;;;;4.19;42.65;99265.09;1804131;78;21162;-63
2021/01/16 03:54:37;;;;;;;7.50;5.12;;;;;;;4.19;42.63;99269.50;1779704;77;21647;-63
2021/01/16 03:57:06;;;;;;;8.70;5.12;;;;;;;4.18;42.63;99273.11;1779885;78;22039;-64
2021/01/16 03:59:33;;;;;;;6.60;5.08;;;;;;;4.18;42.60;99271.30;1779169;78;21056;-63
2021/01/16 04:02:01;;;;;;;7.60;4.90;;;;;;;4.16;42.61;99281.62;1782486;78;21614;-65
2021/01/16 04:04:28;;;;;;;7.08;4.90;;;;;;;4.14;42.59;99285.20;1806055;78;21200;-64
2021/01/16 04:06:56;;;;;;;7.55;4.55;;;;;;;4.13;42.60;99280.93;1798332;78;21582;-64
2021/01/16 04:09:23;;;;;;;6.15;4.80;;;;;;;4.11;42.58;99281.55;1777265;77;23522;-64
2021/01/16 04:11:53;;;;;;;9.25;5.05;;;;;;;4.09;42.59;99285.27;1799643;79;21177;-64
2021/01/16 04:14:20;;;;;;;7.45;5.30;;;;;;;4.09;42.55;99286.09;1772259;79;21111;-64
2021/01/16 04:16:47;;;;;;;6.67;4.58;;;;;;;4.07;42.55;99293.28;1776252;78;21129;-65
2021/01/16 04:19:15;;;;;;;7.10;4.85;;;;;;;4.07;42.54;99288.52;1773836;78;21154;-64
2021/01/16 04:21:43;;;;;;;9.15;5.20;;;;;;;4.05;42.51;99291.77;1787889;78;21429;-65
2021/01/16 04:24:11;;;;;;;7.22;5.28;;;;;;;4.04;42.48;99294.07;1775449;77;21160;-65
2021/01/16 04:26:38;;;;;;;7.12;4.75;;;;;;;4.02;42.50;99296.83;1788571;78;21150;-63
2021/01/16 04:29:08;;;;;;;8.00;5.12;;;;;;;4.00;42.47;99304.02;1771832;77;21122;-63
2021/01/16 04:31:35;;;;;;;8.00;5.60;;;;;;;4.00;42.49;99304.48;1793146;78;21182;-65
2021/01/16 04:34:04;;;;;;;8.00;5.50;;;;;;;3.98;42.47;99303.33;1784231;77;21429;-65
2021/01/16 04:36:31;;;;;;;8.68;5.70;;;;;;;3.99;42.46;99316.80;1798190;78;21150;-64
2021/01/16 04:38:59;;;;;;;7.75;5.12;;;;;;;3.99;42.42;99315.48;1807599;78;21533;-65
2021/01/16 04:41:27;;;;;;;8.55;5.65;;;;;;;3.97;42.40;99320.05;1809871;78;21578;-64
2021/01/16 04:43:54;;;;;;;9.45;6.30;;;;;;;3.96;42.40;99321.50;1804139;78;21121;-65
2021/01/16 04:46:22;;;;;;;7.92;5.47;;;;;;;3.93;42.38;99315.55;1810375;78;21451;-63
2021/01/16 04:49:04;;;;;;;8.90;5.85;;;;;;;3.93;42.31;99313.41;1811422;77;21117;-65
2021/01/16 04:51:43;;;;;;;7.23;5.43;;;;;;;3.92;42.33;99313.91;1814844;78;21154;-64
2021/01/16 04:54:07;;;;;;;7.15;5.22;;;;;;;3.89;42.32;99319.42;1810093;76;21228;-64
2021/01/16 04:56:35;;;;;;;7.65;5.20;;;;;;;3.87;42.31;99320.04;1787214;78;21141;-64
2021/01/16 04:59:02;;;;;;;8.80;5.75;;;;;;;3.86;42.28;99317.08;1808821;78;22019;-64
2021/01/16 05:01:29;;;;;;;8.03;5.78;;;;;;;3.85;42.28;99318.52;1806998;78;21142;-65
2021/01/16 05:03:57;;;;;;;7.30;5.28;;;;;;;3.84;42.28;99322.92;1809171;78;21197;-64
2021/01/16 05:06:26;;;;;;;8.15;5.25;;;;;;;3.84;42.24;99333.44;1798654;78;21681;-64
2021/01/16 05:08:55;;;;;;;8.23;5.47;;;;;;;3.83;42.20;99325.22;1811204;78;21102;-64
2021/01/16 05:11:37;;;;;;;8.30;5.75;;;;;;;3.83;42.17;99334.42;1809391;78;22387;-65
2021/01/16 05:14:17;;;;;;;7.67;5.47;;;;;;;3.81;42.13;99335.53;1802632;78;21114;-64
2021/01/16 05:16:56;;;;;;;9.03;6.17;;;;;;;3.80;42.13;99344.36;1809677;78;21134;-65
2021/01/16 05:19:34;;;;;;;8.95;6.12;;;;;;;3.78;42.11;99348.43;1816248;77;21673;-64
2021/01/16 05:22:02;;;;;;;7.62;5.05;;;;;;;3.74;42.10;99353.12;1813966;78;21130;-64
2021/01/16 05:24:30;;;;;;;7.67;5.58;;;;;;;3.73;42.13;99355.91;1817386;78;21671;-64
2021/01/16 05:27:03;;;;;;;9.23;5.80;;;;;;;3.70;42.24;99353.05;1805732;78;21190;-64
2021/01/16 05:29:33;;;;;;;8.93;6.33;;;;;;;3.69;42.09;99359.27;1800847;78;21172;-64
2021/01/16 05:32:04;;;;;;;7.95;5.10;;;;;;;3.69;42.06;99362.36;1796759;78;21387;-63
2021/01/16 05:34:33;;;;;;;7.45;5.40;;;;;;;3.66;42.05;99354.77;1819874;78;21129;-64
2021/01/16 05:37:01;;;;;;;8.45;5.90;;;;;;;3.64;42.03;99361.46;1806355;77;21405;-64
2021/01/16 05:39:31;;;;;;;7.00;5.35;;;;;;;3.63;42.03;99359.81;1796364;78;21206;-65
2021/01/16 05:42:04;;;;;;;8.78;5.45;;;;;;;3.62;42.01;99363.88;1768648;80;21145;-64
2021/01/16 05:44:33;;;;;;;8.38;5.75;;;;;;;3.62;41.99;99375.21;1769185;80;21147;-64
2021/01/16 05:47:00;;;;;;;8.13;5.95;;;;;;;3.61;41.97;99371.40;1763110;80;21132;-65
2021/01/16 05:49:28;;;;;;;9.03;5.92;;;;;;;3.58;41.96;99382.19;1764591;80;21361;-65
2021/01/16 05:51:55;;;;;;;7.97;5.87;;;;;;;3.58;41.93;99379.07;1804979;78;21198;-65
2021/01/16 05:54:26;;;;;;;8.55;4.90;;;;;;;3.58;41.93;99381.70;1792943;78;21123;-65
2021/01/16 05:56:53;;;;;;;8.08;5.58;;;;;;;3.57;41.74;99381.33;1804380;78;21181;-65
2021/01/16 05:59:20;;;;;;;7.10;5.05;;;;;;;3.57;41.88;99383.14;1793843;77;21610;-65
2021/01/16 06:01:51;;;;;;;8.38;6.28;;;;;;;3.54;41.86;99378.50;1799890;78;21106;-64
2021/01/16 06:04:20;;;;;;;8.63;6.00;;;;;;;3.53;41.86;99380.80;1783149;78;21204;-65
2021/01/16 06:06:48;;;;;;;7.40;5.35;;;;;;;3.54;41.85;99385.56;1802961;78;21142;-65
2021/01/16 06:09:19;;;;;;;9.45;5.87;;;;;;;3.53;41.82;99381.25;1795180;78;21186;-64
2021/01/16 06:11:49;;;;;;;8.18;5.17;;;;;;;3.51;41.80;99387.94;1795566;78;21647;-65
2021/01/16 06:14:18;;;;;;;8.23;5.92;;;;;;;3.51;41.76;99396.31;1797886;78;21372;-65
2021/01/16 06:16:53;;;;;;;8.98;6.00;;;;;;;3.50;41.76;99399.92;1789970;78;21190;-64
2021/01/16 06:19:25;;;;;;;8.40;5.20;;;;;;;3.49;41.74;99406.94;1793813;78;21593;-64
2021/01/16 06:21:54;;;;;;;8.28;5.53;;;;;;;3.49;41.72;99409.57;1798147;78;21161;-63
2021/01/16 06:24:23;;;;;;;8.70;5.55;;;;;;;3.48;41.69;99416.29;1810146;78;21207;-64
2021/01/16 06:26:57;;;;;;;8.15;5.50;;;;;;;3.48;41.72;99421.05;1805776;78;21198;-64
2021/01/16 06:29:34;;;;;;;7.50;5.33;;;;;;;3.47;41.67;99422.00;1761512;79;21189;-64
2021/01/16 06:32:06;;;;;;;8.48;5.87;;;;;;;3.46;41.64;99428.72;1798462;78;21396;-65
2021/01/16 06:34:39;;;;;;;8.15;5.83;;;;;;;3.45;41.64;99433.12;1766276;80;21121;-66
2021/01/16 06:37:16;;;;;;;10.08;5.28;;;;;;;3.45;41.60;99429.18;1788002;77;21144;-65
2021/01/16 06:39:45;;;;;;;8.43;5.58;;;;;;;3.43;41.62;99432.91;1800491;78;23649;-64
2021/01/16 06:42:26;;;;;;;9.53;5.37;;;;;;;3.43;41.60;99435.53;1818121;78;21528;-66
2021/01/16 06:45:06;;;;;;;10.25;5.22;;;;;;;3.43;41.57;99435.53;1792719;78;21466;-65
2021/01/16 06:47:40;;;;;;;12.67;6.07;;;;;;;3.48;41.58;99430.73;1840472;77;23679;-65
2021/01/16 06:50:10;;;;;;;7.37;5.20;;;;;;;3.42;41.54;99432.54;1819920;78;21189;-65
2021/01/16 06:52:40;;;;;;;8.35;5.10;;;;;;;3.43;41.49;99440.30;1834072;77;22275;-67
2021/01/16 06:55:08;;;;;;;7.10;5.22;;;;;;;3.45;41.51;99442.80;1855021;77;21229;-66
2021/01/16 06:57:35;;;;;;;8.85;6.00;;;;;;;3.44;41.48;99439.80;1838693;77;21630;-66
2021/01/16 07:00:07;;;;;;;6.85;4.97;;;;;;;3.44;41.44;99438.03;1821840;77;21182;-66
2021/01/16 07:02:36;;;;;;;8.50;5.70;;;;;;;3.46;41.41;99441.36;1822138;77;21126;-65
2021/01/16 07:05:23;;;;;;;9.93;5.45;;;;;;;3.47;41.38;99445.64;1822518;77;21333;-66
2021/01/16 07:07:51;;;;;;;8.50;5.62;;;;;;;3.48;41.33;99454.38;1827318;77;21159;-66
2021/01/16 07:10:22;;;;;;;9.10;5.50;;;;;;;3.49;41.29;99457.33;1794520;78;20992;-66
2021/01/16 07:12:51;;;;;;;8.18;5.53;;;;;;;3.50;41.26;99459.02;1780488;77;21213;-65
2021/01/16 07:15:20;;;;;;;9.25;5.28;;;;;;;3.50;41.24;99455.89;1828514;78;21126;-66
2021/01/16 07:17:49;;;;;;;9.80;6.20;;;;;;;3.52;41.21;99462.34;1810970;78;22270;-65
2021/01/16 07:20:16;;;;;;;9.28;6.03;;;;;;;3.53;41.15;99468.78;1810246;78;21190;-66
2021/01/16 07:22:44;;;;;;;9.30;5.83;;;;;;;3.54;41.14;99474.37;1813208;78;21218;-66
2021/01/16 07:25:13;;;;;;;9.28;5.78;;;;;;;3.57;41.08;99477.20;1817273;78;21151;-66
2021/01/16 07:27:44;;;;;;;8.90;5.95;;;;;;;3.58;41.10;99478.89;1823536;78;21176;-65
2021/01/16 07:30:15;;;;;;;8.08;5.58;;;;;;;3.58;41.08;99484.14;1793136;78;21357;-65
2021/01/16 07:32:49;;;;;;;9.00;6.03;;;;;;;3.62;41.01;99489.48;1804690;79;21712;-64
2021/01/16 07:35:20;;;;;;;8.63;6.10;;;;;;;3.65;40.99;99492.32;1797847;78;21158;-65
2021/01/16 07:37:49;;;;;;;7.85;5.60;;;;;;;3.66;40.92;99486.12;1810657;79;21567;-63
2021/01/16 07:40:26;;;;;;;9.28;5.28;;;;;;;3.67;40.95;99485.14;1787893;79;21611;-65
2021/01/16 07:43:01;;;;;;;8.68;5.83;;;;;;;3.69;40.84;99490.64;1821845;78;21253;-66
2021/01/16 07:45:34;;;;;;;8.58;5.47;;;;;;;3.71;40.75;99488.71;1808884;78;21185;-66
2021/01/16 07:48:06;;;;;;;7.78;5.12;;;;;;;3.73;40.69;99497.78;1811711;78;21126;-66
2021/01/16 07:50:37;;;;;;;9.33;5.42;;;;;;;3.75;40.67;99490.59;1822578;78;21159;-65
2021/01/16 07:53:09;;;;;;;8.83;5.47;;;;;;;3.78;40.58;99494.75;1818743;78;21110;-66
2021/01/16 07:55:42;;;;;;;11.15;6.28;;;;;;;3.81;40.55;99497.13;1818019;78;22294;-66
2021/01/16 07:58:22;;;;;;;;;;;;;;;3.83;40.50;99504.40;1829973;78;21138;-65
2021/01/16 08:01:21;;;;;;;8.90;6.22;;;;;;;3.85;40.43;99503.78;1821030;78;20258;-66
2021/01/16 08:04:12;;;;;;;8.65;5.60;;;;;;;3.80;40.49;99503.34;1819570;78;21170;-67
2021/01/16 08:07:06;;;;;;;7.97;5.08;;;;;;;3.83;40.46;99504.40;1819927;78;21134;-65
2021/01/16 08:09:51;;;;;;;;;;;;;;;3.83;40.42;99507.03;1820333;78;21422;-65
2021/01/16 08:12:21;;;;;;;7.80;5.40;;;;;;;3.85;40.56;99515.61;1820480;78;20937;-65
2021/01/16 08:14:49;;;;;;;7.95;5.30;;;;;;;3.81;41.30;99511.09;1816763;78;21203;-66
2021/01/16 08:17:20;;;;;;;9.98;5.80;;;;;;;3.84;41.36;99504.73;1848579;77;21147;-65
2021/01/16 08:20:07;;;;;;;8.35;5.60;;;;;;;3.88;41.31;99512.25;1829797;77;22182;-65
2021/01/16 08:22:42;;;;;;;8.93;6.05;;;;;;;3.92;41.24;99507.08;1809711;77;21381;-65
2021/01/16 08:25:14;;;;;;;8.03;5.05;;;;;;;3.97;41.15;99510.61;1826296;77;21159;-65
2021/01/16 08:27:51;;;;;;;8.63;5.58;;;;;;;4.00;41.02;99512.99;1789376;78;21148;-65
2021/01/16 08:30:21;;;;;;;8.08;6.12;;;;;;;4.03;40.91;99521.91;1821368;77;21135;-66
2021/01/16 08:33:10;;;;;;;10.60;6.53;;;;;;;4.06;40.81;99522.15;1799041;78;21174;-64
2021/01/16 08:35:42;;;;;;;8.10;5.47;;;;;;;4.09;40.71;99517.44;1833706;77;22363;-66
2021/01/16 08:38:21;;;;;;;8.38;5.90;;;;;;;4.08;40.62;99514.96;1825992;78;21564;-66
2021/01/16 08:41:06;;;;;;;9.40;6.25;;;;;;;4.12;40.56;99516.36;1799970;78;21114;-65
2021/01/16 08:43:47;;;;;;;9.05;6.00;;;;;;;4.18;40.47;99520.25;1811740;78;21154;-65
2021/01/16 08:46:33;;;;;;;8.93;5.37;;;;;;;4.23;40.39;99515.41;1811694;78;21614;-65
2021/01/16 08:51:53;;;;;;;10.78;8.05;;;;;;;4.44;40.23;99510.94;1815028;77;27797;-63
2021/01/16 08:54:21;;;;;;;10.95;7.85;;;;;;;4.71;39.90;99503.72;1774728;79;28219;-64
2021/01/16 08:56:53;;;;;;;6.92;5.72;;;;;;;5.23;39.19;99500.81;1819303;78;22278;-64
2021/01/16 08:59:33;;;;;;;7.72;5.85;;;;;;;5.48;38.75;99507.80;1804139;78;21026;-64
2021/01/16 09:02:09;;;;;;;10.35;7.10;;;;;;;5.43;38.75;99506.91;1789377;78;21565;-65
2021/01/16 09:04:39;;;;;;;8.40;5.55;;;;;;;5.39;38.77;99507.31;1799568;78;21113;-65
2021/01/16 09:07:22;;;;;;;9.85;6.05;;;;;;;5.40;38.75;99512.94;1796824;78;21118;-66
2021/01/16 09:10:00;;;;;;;9.98;6.28;;;;;;;5.40;38.74;99507.67;1807071;78;21203;-65
2021/01/16 09:12:32;;;;;;;9.13;5.80;;;;;;;5.42;38.72;99500.45;1815013;78;21038;-65
2021/01/16 09:15:25;;;;;;;10.05;6.35;;;;;;;5.43;38.71;99501.64;1790170;79;21643;-65
2021/01/16 09:18:13;;;;;;;8.35;6.05;;;;;;;5.47;38.72;99503.52;1800941;79;21110;-64
2021/01/16 09:20:55;;;;;;;7.70;5.45;;;;;;;5.49;38.74;99493.66;1811120;78;21142;-66
2021/01/16 09:23:37;;;;;;;9.60;6.25;;;;;;;5.54;38.75;99498.00;1809316;78;21371;-65
2021/01/16 09:26:10;;;;;;;9.78;6.08;;;;;;;5.59;38.68;99501.05;1810284;78;21133;-63
2021/01/16 09:28:55;;;;;;;9.25;5.67;;;;;;;5.63;38.62;99497.16;1814678;78;25812;-65
2021/01/16 09:31:42;;;;;;;9.10;6.47;;;;;;;5.70;38.61;99498.25;1793944;79;21165;-64
2021/01/16 09:36:56;;;;;;;9.10;6.40;;;;;;;5.88;38.56;99494.88;1813022;77;26674;-65
2021/01/16 09:39:28;;;;;;;9.50;6.03;;;;;;;5.92;38.45;99501.52;1796321;79;21126;-66
2021/01/16 09:42:01;;;;;;;8.55;6.15;;;;;;;5.99;38.41;99491.24;1815413;78;21262;-66
2021/01/16 09:44:43;;;;;;;8.13;5.93;;;;;;;6.07;38.39;99492.19;1808125;78;21186;-64
2021/01/16 09:47:31;;;;;;;10.85;6.50;;;;;;;6.16;38.30;99498.42;1785075;79;21849;-64
2021/01/16 09:50:11;;;;;;;11.12;6.92;;;;;;;6.25;38.17;99501.97;1800489;78;21195;-64
2021/01/16 09:52:49;;;;;;;7.85;5.45;;;;;;;6.36;38.04;99497.83;1795734;78;21161;-64
2021/01/16 09:55:31;;;;;;;9.03;5.67;;;;;;;6.45;37.96;99486.39;1784440;79;21366;-65
2021/01/16 09:57:55;;;;;;;8.38;5.72;;;;;;;6.56;37.85;99489.80;1808689;78;21162;-65
2021/01/16 10:00:31;;;;;;;8.58;6.00;;;;;;;6.69;37.76;99491.59;1809957;78;21540;-65
2021/01/16 10:03:13;;;;;;;9.23;6.40;;;;;;;6.79;37.69;99488.88;1813942;78;21153;-65
2021/01/16 10:05:41;;;;;;;9.23;5.95;;;;;;;6.89;37.58;99483.88;1805384;78;21173;-65
2021/01/16 10:08:09;;;;;;;7.75;5.60;;;;;;;6.98;37.50;99480.81;1813350;78;21288;-66
2021/01/16 10:10:47;;;;;;;9.58;6.37;;;;;;;7.08;37.42;99488.66;1817347;78;21157;-66
2021/01/16 10:13:34;;;;;;;9.50;6.03;;;;;;;7.18;37.33;99484.11;1794761;78;21141;-65
2021/01/16 10:16:07;;;;;;;7.50;5.60;;;;;;;7.29;37.27;99487.84;1814649;78;21181;-66
2021/01/16 10:18:36;;;;;;;8.53;5.67;;;;;;;7.39;37.22;99482.96;1816421;78;21118;-66
2021/01/16 10:21:08;;;;;;;9.05;6.17;;;;;;;7.50;37.14;99478.75;1795440;79;21194;-66
2021/01/16 10:23:39;;;;;;;7.58;5.37;;;;;;;7.60;37.04;99479.97;1793897;78;21165;-66
2021/01/16 10:26:16;;;;;;;7.65;5.37;;;;;;;7.71;36.98;99478.86;1793430;78;21193;-64
2021/01/16 10:28:55;;;;;;;8.60;4.85;;;;;;;7.82;36.96;99481.25;1785452;78;21170;-65
2021/01/16 10:31:26;;;;;;;8.63;5.40;;;;;;;7.93;36.87;99481.48;1774149;80;21626;-65
2021/01/16 10:34:04;;;;;;;7.75;5.35;;;;;;;8.03;36.79;99477.72;1792220;79;21197;-67
2021/01/16 10:36:39;;;;;;;7.80;5.55;;;;;;;8.19;36.78;99463.76;1843613;77;27071;-65
2021/01/16 10:39:12;;;;;;;7.72;5.05;;;;;;;8.25;36.68;99481.64;1829172;77;21568;-68
2021/01/16 10:41:44;;;;;;;6.92;4.80;;;;;;;8.34;36.63;99483.80;1794677;78;21179;-65
2021/01/16 10:44:13;;;;;;;7.60;4.67;;;;;;;8.44;36.56;99481.05;1820676;77;21748;-63
2021/01/16 10:46:47;;;;;;;7.30;5.35;;;;;;;8.52;36.50;99478.45;1803102;78;21155;-64
2021/01/16 10:49:24;;;;;;;7.42;5.28;;;;;;;8.58;36.42;99471.69;1816805;78;21567;-64
2021/01/16 10:52:02;;;;;;;8.60;5.60;;;;;;;8.64;36.30;99470.53;1819991;78;21048;-65
2021/01/16 10:54:30;;;;;;;6.80;5.25;;;;;;;8.69;36.25;99473.19;1835276;75;22256;-65
2021/01/16 10:57:09;;;;;;;8.88;5.60;;;;;;;8.73;36.17;99468.74;1811078;77;21028;-67
2021/01/16 10:59:40;;;;;;;9.35;5.42;;;;;;;8.77;36.09;99468.75;1818518;77;21032;-67
2021/01/16 11:02:12;;;;;;;7.78;5.80;;;;;;;8.85;36.04;99462.63;1814989;78;21151;-66
2021/01/16 11:04:45;;;;;;;8.23;6.00;;;;;;;8.92;36.00;99459.64;1800802;78;21185;-69
2021/01/16 11:07:28;;;;;;;10.32;5.97;;;;;;;9.04;35.94;99460.99;1799240;77;21406;-68
2021/01/16 11:10:06;;;;;;;;;;;;;;;9.16;35.87;99462.81;1796221;78;21141;-67
2021/01/16 11:12:33;;;;;;;6.62;5.03;;;;;;;9.33;35.74;99457.02;1786522;79;20228;-66
2021/01/16 11:15:21;;;;;;;7.92;5.00;;;;;;;9.49;35.74;99460.14;1785551;79;21158;-68
2021/01/16 11:17:52;;;;;;;8.20;5.78;;;;;;;9.83;35.51;99467.02;1784549;79;21158;-68
2021/01/16 11:20:31;;;;;;;9.20;5.47;;;;;;;10.21;35.21;99464.58;1789718;79;21354;-67
2021/01/16 11:23:29;;;;;;;6.92;5.25;;;;;;;10.58;34.83;99463.91;1791181;79;21127;-67
2021/01/16 11:25:58;;;;;;;7.35;5.58;;;;;;;10.96;34.48;99461.86;1813753;77;21137;-66
2021/01/16 11:28:27;;;;;;;7.30;5.08;;;;;;;11.27;34.09;99461.77;1785067;78;21618;-68
2021/01/16 11:31:07;;;;;;;7.90;5.80;;;;;;;11.43;33.87;99460.80;1802861;78;21118;-65
2021/01/16 11:33:36;;;;;;;8.43;5.97;;;;;;;11.49;33.73;99461.91;1805168;78;21346;-65
2021/01/16 11:36:14;;;;;;;7.20;5.50;;;;;;;11.46;33.62;99457.78;1805202;77;21190;-65
2021/01/16 11:38:49;;;;;;;7.20;5.12;;;;;;;11.39;33.59;99462.16;1814489;78;21122;-66
2021/01/16 11:41:54;;;;;;;7.87;5.53;;;;;;;11.27;33.60;99457.78;1811006;78;21162;-66
2021/01/16 11:44:22;;;;;;;7.58;5.58;;;;;;;11.13;33.66;99458.58;1802538;77;21126;-68
2021/01/16 11:46:53;;;;;;;6.60;5.10;;;;;;;10.95;33.78;99459.72;1839739;76;21368;-67
2021/01/16 11:49:20;;;;;;;7.00;5.72;;;;;;;10.84;33.85;99456.13;1852014;77;21160;-66
2021/01/16 11:51:48;;;;;;;8.13;5.60;;;;;;;10.75;33.92;99453.20;1845703;77;21144;-66
2021/01/16 11:54:26;;;;;;;7.85;5.85;;;;;;;10.64;34.02;99455.75;1843856;77;21156;-65
2021/01/16 11:56:53;;;;;;;7.80;5.35;;;;;;;10.55;34.00;99450.18;1854970;76;21101;-67
2021/01/16 11:59:21;;;;;;;7.92;5.37;;;;;;;10.43;34.09;99443.93;1853007;77;22213;-66
2021/01/16 12:01:48;;;;;;;7.62;5.70;;;;;;;10.35;34.13;99453.27;1854922;77;21164;-68
2021/01/16 12:04:16;;;;;;;7.65;5.70;;;;;;;10.26;34.19;99447.64;1855690;77;21216;-67
2021/01/16 12:06:43;;;;;;;7.60;5.28;;;;;;;10.18;34.24;99443.70;1846976;77;21112;-67
2021/01/16 12:09:14;;;;;;;8.28;5.90;;;;;;;10.11;34.30;99449.36;1841393;77;21192;-65
2021/01/16 12:11:41;;;;;;;7.58;5.15;;;;;;;10.06;34.34;99451.19;1844589;77;22029;-66
2021/01/16 12:14:08;;;;;;;7.12;5.35;;;;;;;9.99;34.37;99452.39;1816856;77;21608;-67
2021/01/16 12:16:36;;;;;;;8.08;5.83;;;;;;;9.94;34.38;99450.73;1838296;77;21124;-67